createdAt,value
2018-04-07T00:00:38.610Z,8.10
2018-04-07T00:03:06.926Z,8.10
2018-04-07T00:05:35.216Z,8.00
2018-04-07T00:08:03.446Z,8.00
2018-04-07T00:10:30.961Z,8.00
2018-04-07T00:12:59.208Z,8.00
2018-04-07T00:15:26.916Z,7.90
2018-04-07T00:17:54.789Z,7.90
2018-04-07T00:20:23.111Z,7.90
2018-04-07T00:22:50.614Z,7.90
2018-04-07T00:25:18.102Z,7.90
2018-04-07T00:27:45.627Z,7.90
2018-04-07T00:30:13.108Z,7.80
2018-04-07T00:32:40.673Z,7.80
2018-04-07T00:35:08.234Z,7.80
2018-04-07T00:37:35.747Z,7.80
2018-04-07T00:40:03.261Z,7.70
2018-04-07T00:42:31.501Z,7.70
2018-04-07T00:44:59.000Z,7.70
2018-04-07T00:47:26.488Z,7.70
2018-04-07T00:49:54.795Z,7.60
2018-04-07T00:52:22.339Z,7.60
2018-04-07T00:54:49.920Z,7.60
2018-04-07T00:57:18.164Z,7.50
2018-04-07T00:59:45.650Z,7.50
2018-04-07T01:02:13.235Z,7.60
2018-04-07T01:04:41.428Z,7.50
2018-04-07T01:07:08.974Z,7.50
2018-04-07T01:09:36.459Z,7.50
2018-04-07T01:12:04.068Z,7.50
2018-04-07T01:14:31.599Z,7.40
2018-04-07T01:16:59.108Z,7.40
2018-04-07T01:19:26.727Z,7.40
2018-04-07T01:21:54.219Z,7.40
2018-04-07T01:24:22.508Z,7.30
2018-04-07T01:26:50.004Z,7.30
2018-04-07T01:29:17.610Z,7.30
2018-04-07T01:31:45.096Z,7.30
2018-04-07T01:34:13.430Z,7.20
2018-04-07T01:36:41.706Z,7.20
2018-04-07T01:39:09.959Z,7.20
2018-04-07T01:41:37.478Z,7.20
2018-04-07T01:44:04.953Z,7.20
2018-04-07T01:46:32.458Z,7.20
2018-04-07T01:48:59.961Z,7.20
2018-04-07T01:51:27.469Z,7.10
2018-04-07T01:53:54.958Z,7.10
2018-04-07T01:56:22.597Z,7.10
2018-04-07T01:58:50.917Z,7.00
2018-04-07T02:01:18.420Z,7.00
2018-04-07T02:03:45.930Z,7.00
2018-04-07T02:06:13.712Z,7.00
2018-04-07T02:08:41.260Z,7.00
2018-04-07T02:11:08.828Z,6.90
2018-04-07T02:13:36.348Z,6.90
2018-04-07T02:16:03.872Z,6.90
2018-04-07T02:18:32.115Z,6.80
2018-04-07T02:20:59.733Z,6.80
2018-04-07T02:23:27.986Z,6.80
2018-04-07T02:25:55.559Z,6.80
2018-04-07T02:28:23.093Z,6.80
2018-04-07T02:30:50.630Z,6.80
2018-04-07T02:33:18.149Z,6.80
2018-04-07T02:35:45.775Z,6.80
2018-04-07T02:38:13.289Z,6.80
2018-04-07T02:40:40.803Z,6.80
2018-04-07T02:43:08.411Z,6.80
2018-04-07T02:45:36.192Z,6.70
2018-04-07T02:48:03.948Z,6.70
2018-04-07T02:50:32.195Z,6.70
2018-04-07T02:52:59.694Z,6.70
2018-04-07T02:55:27.962Z,6.70
2018-04-07T02:57:55.565Z,6.60
2018-04-07T03:00:23.831Z,6.60
2018-04-07T03:02:51.417Z,6.60
2018-04-07T03:05:18.951Z,6.60
2018-04-07T03:07:46.477Z,6.60
2018-04-07T03:10:14.726Z,6.60
2018-04-07T03:12:42.286Z,6.50
2018-04-07T03:15:09.996Z,6.60
2018-04-07T03:17:38.237Z,6.50
2018-04-07T03:20:05.864Z,6.50
2018-04-07T03:22:34.202Z,6.40
2018-04-07T03:25:01.874Z,6.40
2018-04-07T03:27:29.490Z,6.40
2018-04-07T03:29:57.760Z,6.40
2018-04-07T03:32:25.282Z,6.40
2018-04-07T03:34:52.824Z,6.40
2018-04-07T03:37:21.140Z,6.40
2018-04-07T03:39:48.796Z,6.40
2018-04-07T03:42:17.071Z,6.40
2018-04-07T03:44:45.309Z,6.40
2018-04-07T03:47:13.148Z,6.30
2018-04-07T03:49:41.418Z,6.40
2018-04-07T03:52:08.928Z,6.30
2018-04-07T03:54:36.416Z,6.30
2018-04-07T03:57:04.006Z,6.30
2018-04-07T03:59:31.519Z,6.30
2018-04-07T04:01:59.055Z,6.30
2018-04-07T04:04:26.535Z,6.30
2018-04-07T04:06:54.829Z,6.30
2018-04-07T04:09:22.636Z,6.30
2018-04-07T04:11:50.177Z,6.30
2018-04-07T04:14:17.703Z,6.30
2018-04-07T04:16:45.593Z,6.30
2018-04-07T04:19:13.197Z,6.20
2018-04-07T04:21:40.804Z,6.20
2018-04-07T04:24:08.319Z,6.20
2018-04-07T04:26:35.944Z,6.30
2018-04-07T04:29:03.461Z,6.20
2018-04-07T04:31:31.070Z,6.20
2018-04-07T04:33:59.384Z,6.30
2018-04-07T04:36:26.910Z,6.20
2018-04-07T04:38:54.425Z,6.30
2018-04-07T04:41:22.000Z,6.20
2018-04-07T04:43:49.524Z,6.30
2018-04-07T04:46:18.529Z,6.30
2018-04-07T04:48:46.054Z,6.30
2018-04-07T04:51:13.534Z,6.30
2018-04-07T04:53:41.014Z,6.30
2018-04-07T04:56:08.693Z,6.30
2018-04-07T04:58:36.218Z,6.30
2018-04-07T05:01:03.857Z,6.30
2018-04-07T05:03:31.535Z,6.30
2018-04-07T05:05:59.240Z,6.30
2018-04-07T05:08:26.780Z,6.30
2018-04-07T05:10:54.368Z,6.40
2018-04-07T05:13:22.612Z,6.40
2018-04-07T05:15:50.116Z,6.40
2018-04-07T05:18:18.373Z,6.40
2018-04-07T05:20:45.900Z,6.40
2018-04-07T05:23:13.449Z,6.50
2018-04-07T05:25:41.733Z,6.50
2018-04-07T05:28:10.183Z,7.80
2018-04-07T05:30:37.688Z,7.80
2018-04-07T05:33:05.198Z,8.80
2018-04-07T05:35:32.806Z,9.20
2018-04-07T05:38:00.286Z,9.70
2018-04-07T05:40:27.780Z,10.00
2018-04-07T05:42:56.166Z,10.40
2018-04-07T05:45:23.644Z,10.30
2018-04-07T05:47:51.964Z,10.20
2018-04-07T05:50:19.914Z,10.20
2018-04-07T05:52:48.172Z,10.60
2018-04-07T05:55:15.772Z,10.50
2018-04-07T05:57:44.081Z,10.80
2018-04-07T06:00:11.568Z,10.70
2018-04-07T06:02:39.050Z,11.00
2018-04-07T06:05:06.583Z,11.20
2018-04-07T06:07:34.135Z,10.90
2018-04-07T06:10:01.820Z,10.60
2018-04-07T06:12:30.097Z,10.90
2018-04-07T06:14:57.859Z,10.90
2018-04-07T06:17:25.462Z,10.80
2018-04-07T06:19:53.006Z,10.50
2018-04-07T06:22:20.685Z,10.50
2018-04-07T06:24:48.260Z,10.40
2018-04-07T06:27:15.876Z,10.30
2018-04-07T06:29:43.480Z,10.20
2018-04-07T06:34:45.623Z,10.10
2018-04-07T06:37:14.001Z,9.90
2018-04-07T06:39:41.518Z,9.90
2018-04-07T06:42:09.039Z,9.60
2018-04-07T06:44:37.289Z,9.20
2018-04-07T06:47:04.837Z,9.10
2018-04-07T06:49:32.335Z,9.00
2018-04-07T06:51:59.865Z,8.90
2018-04-07T06:57:02.099Z,8.60
2018-04-07T06:59:29.736Z,8.60
2018-04-07T07:01:58.053Z,8.50
2018-04-07T07:04:25.673Z,8.50
2018-04-07T07:06:53.207Z,8.50
2018-04-07T07:09:20.697Z,8.50
2018-04-07T07:11:48.215Z,8.60
2018-04-07T07:14:16.574Z,8.70
2018-04-07T07:16:44.207Z,8.60
2018-04-07T07:19:11.687Z,8.70
2018-04-07T07:21:39.175Z,8.70
2018-04-07T07:24:06.707Z,8.80
2018-04-07T07:26:34.187Z,8.80
2018-04-07T07:29:01.721Z,8.90
2018-04-07T07:31:30.022Z,9.00
2018-04-07T07:33:58.290Z,9.10
2018-04-07T07:36:25.811Z,9.00
2018-04-07T07:38:53.291Z,9.20
2018-04-07T07:41:20.802Z,9.30
2018-04-07T07:43:48.362Z,9.30
2018-04-07T07:46:15.951Z,9.40
2018-04-07T07:48:44.197Z,9.60
2018-04-07T07:51:11.781Z,9.50
2018-04-07T07:53:39.268Z,9.60
2018-04-07T07:56:06.967Z,9.70
2018-04-07T07:58:35.341Z,9.80
2018-04-07T08:01:02.867Z,9.80
2018-04-07T08:03:30.404Z,9.90
2018-04-07T08:05:58.605Z,10.00
2018-04-07T08:08:26.109Z,10.10
2018-04-07T08:10:53.841Z,10.20
2018-04-07T08:13:21.333Z,10.30
2018-04-07T08:15:49.038Z,10.30
2018-04-07T08:18:16.560Z,10.40
2018-04-07T08:20:44.159Z,10.50
2018-04-07T08:23:12.346Z,10.50
2018-04-07T08:25:39.830Z,10.60
2018-04-07T08:28:07.397Z,10.70
2018-04-07T08:30:34.896Z,10.80
2018-04-07T08:33:02.683Z,10.90
2018-04-07T08:35:30.985Z,11.00
2018-04-07T08:37:58.763Z,11.00
2018-04-07T08:40:26.335Z,11.10
2018-04-07T08:42:53.824Z,11.20
2018-04-07T08:45:21.362Z,11.20
2018-04-07T08:47:48.905Z,11.30
2018-04-07T08:50:17.196Z,11.50
2018-04-07T08:52:44.706Z,11.50
2018-04-07T08:55:12.248Z,11.60
2018-04-07T08:57:39.775Z,11.70
2018-04-07T09:00:07.283Z,11.80
2018-04-07T09:02:34.850Z,11.90
2018-04-07T09:05:02.512Z,12.00
2018-04-07T09:07:30.026Z,12.10
2018-04-07T09:09:58.348Z,12.30
2018-04-07T09:12:25.871Z,12.20
2018-04-07T09:14:53.526Z,12.30
2018-04-07T09:17:21.020Z,12.40
2018-04-07T09:19:49.323Z,12.60
2018-04-07T09:22:16.882Z,12.60
2018-04-07T09:24:45.239Z,12.80
2018-04-07T09:27:12.827Z,12.80
2018-04-07T09:29:40.415Z,12.90
2018-04-07T09:32:08.690Z,13.20
2018-04-07T09:34:36.265Z,13.20
2018-04-07T09:37:03.827Z,13.30
2018-04-07T09:39:32.120Z,13.60
2018-04-07T09:41:59.639Z,13.60
2018-04-07T09:44:27.146Z,13.80
2018-04-07T09:46:54.781Z,13.90
2018-04-07T09:49:22.281Z,14.00
2018-04-07T09:51:49.774Z,14.30
2018-04-07T09:54:17.304Z,14.60
2018-04-07T09:56:45.054Z,14.90
2018-04-07T10:01:46.384Z,15.50
2018-04-07T10:04:13.922Z,15.50
2018-04-07T10:06:41.983Z,15.70
2018-04-07T10:09:10.220Z,16.00
2018-04-07T10:11:37.754Z,16.00
2018-04-07T10:14:05.251Z,16.10
2018-04-07T10:16:32.945Z,16.10
2018-04-07T10:19:00.458Z,16.10
2018-04-07T10:21:28.741Z,16.50
2018-04-07T10:23:57.029Z,16.50
2018-04-07T10:26:25.298Z,16.80
2018-04-07T10:28:52.816Z,16.70
2018-04-07T10:31:20.304Z,16.90
2018-04-07T10:33:47.848Z,17.10
2018-04-07T10:36:15.369Z,17.40
2018-04-07T10:38:42.899Z,17.90
2018-04-07T10:41:10.442Z,18.30
2018-04-07T10:43:38.860Z,18.60
2018-04-07T10:46:06.387Z,18.60
2018-04-07T10:48:34.119Z,18.70
2018-04-07T10:51:01.682Z,18.80
2018-04-07T10:53:29.229Z,18.90
2018-04-07T10:55:57.545Z,19.30
2018-04-07T10:58:25.043Z,19.30
2018-04-07T11:00:52.574Z,19.50
2018-04-07T11:03:20.111Z,19.80
2018-04-07T11:05:47.593Z,19.80
2018-04-07T11:08:15.868Z,20.30
2018-04-07T11:10:43.353Z,20.30
2018-04-07T11:13:11.626Z,20.40
2018-04-07T11:15:39.236Z,20.40
2018-04-07T11:18:06.727Z,20.40
2018-04-07T11:20:34.218Z,20.50
2018-04-07T11:23:01.865Z,20.20
2018-04-07T11:25:29.371Z,20.50
2018-04-07T11:27:56.891Z,21.00
2018-04-07T11:30:24.395Z,21.30
2018-04-07T11:32:51.991Z,21.90
2018-04-07T11:35:19.498Z,22.40
2018-04-07T11:37:47.206Z,22.70
2018-04-07T11:40:14.731Z,23.00
2018-04-07T11:42:43.023Z,23.60
2018-04-07T11:45:11.322Z,24.00
2018-04-07T11:47:38.808Z,24.00
2018-04-07T11:50:06.338Z,24.10
2018-04-07T11:52:34.603Z,24.90
2018-04-07T11:55:02.181Z,24.80
2018-04-07T11:57:29.677Z,24.80
2018-04-07T11:59:57.940Z,24.50
2018-04-07T12:02:25.524Z,24.50
2018-04-07T12:04:53.028Z,23.70
2018-04-07T12:07:20.654Z,23.40
2018-04-07T12:09:48.152Z,23.80
2018-04-07T12:12:16.428Z,24.50
2018-04-07T12:14:44.697Z,24.60
2018-04-07T12:17:12.244Z,24.60
2018-04-07T12:19:39.930Z,24.60
2018-04-07T12:22:07.422Z,24.70
2018-04-07T12:24:35.712Z,25.10
2018-04-07T12:27:03.220Z,25.00
2018-04-07T12:29:30.986Z,25.10
2018-04-07T12:31:58.472Z,25.20
2018-04-07T12:34:25.995Z,25.40
2018-04-07T12:36:53.645Z,25.40
2018-04-07T12:39:21.360Z,25.70
2018-04-07T12:41:49.614Z,26.10
2018-04-07T12:44:17.156Z,26.10
2018-04-07T12:46:44.893Z,26.40
2018-04-07T12:49:12.387Z,26.50
2018-04-07T12:51:39.953Z,26.20
2018-04-07T12:54:07.645Z,26.00
2018-04-07T12:56:35.582Z,26.00
2018-04-07T12:59:04.003Z,26.10
2018-04-07T13:01:31.548Z,26.10
2018-04-07T13:04:00.001Z,25.80
2018-04-07T13:06:27.591Z,25.70
2018-04-07T13:08:55.139Z,25.80
2018-04-07T13:11:23.543Z,25.50
2018-04-07T13:13:51.104Z,25.50
2018-04-07T13:16:18.629Z,25.50
2018-04-07T13:18:47.727Z,25.40
2018-04-07T13:21:16.024Z,25.60
2018-04-07T13:23:44.311Z,25.50
2018-04-07T13:26:12.600Z,25.40
2018-04-07T13:28:40.865Z,25.40
2018-04-07T13:31:09.309Z,25.50
2018-04-07T13:33:38.649Z,25.50
2018-04-07T13:36:05.142Z,25.70
2018-04-07T13:38:33.527Z,25.70
2018-04-07T13:41:01.775Z,25.70
2018-04-07T13:43:29.421Z,25.70
2018-04-07T13:45:57.217Z,25.70
2018-04-07T13:48:24.834Z,25.60
2018-04-07T13:50:53.240Z,25.30
2018-04-07T13:53:20.803Z,25.30
2018-04-07T13:55:49.214Z,25.60
2018-04-07T13:58:16.751Z,25.60
2018-04-07T14:00:44.429Z,25.70
2018-04-07T14:03:12.690Z,25.60
2018-04-07T14:05:41.008Z,25.50
2018-04-07T14:08:09.316Z,25.20
2018-04-07T14:10:36.825Z,25.20
2018-04-07T14:13:04.343Z,25.10
2018-04-07T14:15:32.621Z,25.00
2018-04-07T14:18:00.158Z,24.90
2018-04-07T14:20:27.646Z,24.90
2018-04-07T14:22:55.269Z,24.90
2018-04-07T14:25:22.821Z,25.00
2018-04-07T14:27:50.383Z,24.90
2018-04-07T14:30:18.713Z,24.60
2018-04-07T14:32:46.234Z,24.60
2018-04-07T14:35:13.738Z,24.60
2018-04-07T14:37:41.317Z,24.60
2018-04-07T14:40:09.062Z,24.50
2018-04-07T14:42:37.325Z,24.50
2018-04-07T14:45:04.947Z,24.50
2018-04-07T14:47:32.490Z,24.20
2018-04-07T14:50:00.834Z,24.10
2018-04-07T14:52:28.345Z,24.10
2018-04-07T14:54:55.893Z,24.10
2018-04-07T14:57:23.403Z,24.00
2018-04-07T14:59:51.181Z,24.00
2018-04-07T15:02:19.444Z,24.00
2018-04-07T15:04:47.062Z,24.00
2018-04-07T15:07:14.592Z,23.90
2018-04-07T15:09:42.897Z,23.70
2018-04-07T15:12:11.192Z,23.60
2018-04-07T15:14:39.492Z,23.70
2018-04-07T15:17:07.040Z,23.60
2018-04-07T15:19:35.289Z,23.60
2018-04-07T15:22:02.846Z,23.50
2018-04-07T15:24:30.349Z,23.50
2018-04-07T15:26:57.876Z,23.50
2018-04-07T15:29:25.668Z,23.40
2018-04-07T15:31:53.153Z,23.20
2018-04-07T15:34:20.652Z,23.20
2018-04-07T15:36:48.925Z,23.10
2018-04-07T15:39:16.424Z,23.00
2018-04-07T15:41:44.730Z,23.00
2018-04-07T15:44:12.217Z,23.00
2018-04-07T15:46:39.776Z,22.90
2018-04-07T15:49:07.332Z,23.00
2018-04-07T15:51:34.897Z,23.00
2018-04-07T15:54:02.411Z,23.00
2018-04-07T15:56:29.991Z,23.00
2018-04-07T15:58:57.516Z,23.10
2018-04-07T16:01:25.084Z,23.20
2018-04-07T16:03:52.629Z,23.20
2018-04-07T16:06:20.119Z,23.10
2018-04-07T16:08:48.431Z,23.00
2018-04-07T16:11:15.983Z,23.00
2018-04-07T16:13:44.294Z,23.00
2018-04-07T16:16:11.890Z,22.90
2018-04-07T16:18:39.479Z,22.90
2018-04-07T16:21:07.072Z,22.90
2018-04-07T16:23:35.405Z,22.90
2018-04-07T16:26:03.117Z,22.90
2018-04-07T16:28:30.632Z,22.80
2018-04-07T16:30:58.207Z,22.80
2018-04-07T16:33:25.751Z,22.70
2018-04-07T16:35:54.148Z,22.60
2018-04-07T16:38:22.402Z,22.50
2018-04-07T16:40:50.050Z,22.50
2018-04-07T16:43:17.567Z,22.40
2018-04-07T16:45:45.080Z,22.30
2018-04-07T16:48:12.656Z,22.30
2018-04-07T16:50:40.219Z,22.30
2018-04-07T16:53:07.837Z,22.20
2018-04-07T16:55:36.169Z,22.10
2018-04-07T16:58:03.777Z,22.00
2018-04-07T17:00:31.370Z,22.00
2018-04-07T17:02:58.948Z,21.90
2018-04-07T17:05:26.488Z,21.80
2018-04-07T17:07:54.187Z,21.70
2018-04-07T17:10:21.758Z,21.60
2018-04-07T17:12:49.370Z,21.60
2018-04-07T17:15:16.948Z,21.50
2018-04-07T17:17:44.438Z,21.40
2018-04-07T17:20:12.030Z,21.30
2018-04-07T17:22:41.026Z,21.30
2018-04-07T17:25:08.698Z,21.20
2018-04-07T17:27:36.330Z,21.10
2018-04-07T17:30:04.639Z,21.00
2018-04-07T17:32:32.171Z,21.00
2018-04-07T17:34:59.904Z,20.90
2018-04-07T17:37:27.440Z,20.80
2018-04-07T17:39:55.706Z,20.60
2018-04-07T17:42:23.327Z,20.50
2018-04-07T17:44:50.866Z,20.40
2018-04-07T17:47:19.152Z,20.30
2018-04-07T17:49:47.549Z,20.20
2018-04-07T17:52:16.485Z,20.20
2018-04-07T17:54:44.088Z,20.10
2018-04-07T17:57:11.627Z,20.10
2018-04-07T17:59:39.191Z,20.00
2018-04-07T18:02:06.732Z,20.00
2018-04-07T18:04:35.164Z,19.80
2018-04-07T18:07:02.724Z,19.70
2018-04-07T18:09:30.347Z,19.70
2018-04-07T18:11:58.311Z,19.60
2018-04-07T18:14:26.087Z,19.60
2018-04-07T18:16:53.649Z,19.60
2018-04-07T18:19:21.276Z,19.50
2018-04-07T18:21:49.586Z,19.30
2018-04-07T18:24:17.080Z,19.30
2018-04-07T18:26:44.616Z,19.20
2018-04-07T18:29:12.113Z,19.20
2018-04-07T18:31:39.677Z,19.00
2018-04-07T18:34:07.277Z,19.00
2018-04-07T18:36:34.818Z,19.00
2018-04-07T18:39:02.346Z,18.90
2018-04-07T18:41:29.901Z,18.90
2018-04-07T18:43:57.458Z,18.80
2018-04-07T18:46:25.048Z,18.70
2018-04-07T18:48:52.809Z,18.60
2018-04-07T18:51:20.462Z,18.60
2018-04-07T18:53:48.038Z,18.50
2018-04-07T18:56:15.567Z,18.50
2018-04-07T18:58:43.956Z,18.30
2018-04-07T19:01:12.261Z,18.30
2018-04-07T19:03:39.911Z,18.20
2018-04-07T19:06:08.178Z,18.20
2018-04-07T19:08:35.726Z,18.10
2018-04-07T19:11:03.260Z,18.10
2018-04-07T19:13:30.793Z,18.10
2018-04-07T19:15:58.317Z,18.00
2018-04-07T19:18:25.858Z,18.00
2018-04-07T19:20:54.183Z,17.90
2018-04-07T19:23:22.001Z,17.90
2018-04-07T19:25:49.565Z,17.90
2018-04-07T19:28:17.132Z,17.90
2018-04-07T19:30:44.712Z,17.80
2018-04-07T19:33:12.196Z,17.70
2018-04-07T19:35:39.766Z,17.70
2018-04-07T19:38:07.464Z,17.60
2018-04-07T19:40:35.092Z,17.50
2018-04-07T19:43:02.674Z,17.50
2018-04-07T19:45:30.181Z,17.50
2018-04-07T19:47:59.300Z,17.40
2018-04-07T19:50:26.818Z,17.40
2018-04-07T19:52:54.390Z,17.40
2018-04-07T19:55:21.968Z,17.30
2018-04-07T19:57:49.527Z,17.20
2018-04-07T20:00:17.252Z,17.20
2018-04-07T20:02:44.915Z,17.10
2018-04-07T20:05:13.197Z,17.00
2018-04-07T20:07:40.834Z,16.90
2018-04-07T20:10:08.425Z,16.90
2018-04-07T20:12:35.972Z,16.90
2018-04-07T20:15:03.569Z,16.80
2018-04-07T20:17:31.164Z,16.80
2018-04-07T20:20:00.748Z,16.70
2018-04-07T20:22:28.342Z,16.60
2018-04-07T20:24:55.895Z,16.60
2018-04-07T20:27:23.420Z,16.50
2018-04-07T20:29:50.975Z,16.50
2018-04-07T20:32:19.323Z,16.40
2018-04-07T20:34:47.033Z,16.40
2018-04-07T20:37:15.377Z,16.40
2018-04-07T20:39:43.087Z,16.30
2018-04-07T20:42:23.245Z,17.20
2018-04-07T20:44:50.846Z,17.20
2018-04-07T20:47:19.097Z,17.50
2018-04-07T20:49:46.680Z,17.50
2018-04-07T20:52:14.274Z,17.60
2018-04-07T20:54:42.585Z,17.70
2018-04-07T20:57:10.097Z,17.70
2018-04-07T20:59:38.263Z,17.70
2018-04-07T21:02:05.794Z,17.60
2018-04-07T21:04:33.335Z,17.20
2018-04-07T21:07:00.938Z,17.00
2018-04-07T21:09:29.761Z,16.60
2018-04-07T21:11:58.132Z,16.60
2018-04-07T21:14:25.648Z,16.50
2018-04-07T21:16:53.260Z,16.30
2018-04-07T21:19:21.522Z,16.00
2018-04-07T21:21:49.017Z,16.00
2018-04-07T21:24:17.537Z,15.80
2018-04-07T21:26:45.046Z,15.80
2018-04-07T21:29:12.602Z,15.70
2018-04-07T21:31:40.153Z,15.70
2018-04-07T21:34:07.717Z,15.60
2018-04-07T21:36:35.283Z,15.50
2018-04-07T21:39:02.835Z,15.40
2018-04-07T21:41:31.838Z,15.30
2018-04-07T21:44:00.113Z,15.30
2018-04-07T21:46:27.645Z,15.20
2018-04-07T21:48:55.144Z,15.20
2018-04-07T21:51:22.744Z,15.20
2018-04-07T21:53:51.023Z,15.10
2018-04-07T21:56:18.518Z,15.10
2018-04-07T21:58:46.817Z,15.00
2018-04-07T22:01:14.302Z,15.00
2018-04-07T22:03:41.858Z,15.00
2018-04-07T22:06:09.348Z,15.00
2018-04-07T22:08:36.870Z,14.90
2018-04-07T22:11:05.849Z,14.90
2018-04-07T22:13:33.452Z,14.90
2018-04-07T22:16:01.766Z,14.80
2018-04-07T22:18:29.362Z,14.80
2018-04-07T22:20:56.886Z,14.80
2018-04-07T22:23:25.159Z,14.70
2018-04-07T22:25:52.666Z,14.70
2018-04-07T22:28:20.166Z,14.60
2018-04-07T22:30:47.790Z,14.60
2018-04-07T22:33:16.046Z,14.60
2018-04-07T22:35:43.570Z,14.60
2018-04-07T22:38:11.182Z,14.60
2018-04-07T22:40:38.748Z,14.50
2018-04-07T22:43:06.277Z,14.40
2018-04-07T22:45:33.818Z,14.40
2018-04-07T22:48:02.778Z,14.40
2018-04-07T22:50:30.285Z,14.40
2018-04-07T22:52:57.929Z,14.40
2018-04-07T22:55:25.436Z,14.40
2018-04-07T22:57:52.952Z,14.30
2018-04-07T23:00:21.315Z,14.40
2018-04-07T23:02:49.592Z,14.30
2018-04-07T23:05:17.881Z,14.30
2018-04-07T23:07:46.182Z,14.30
2018-04-07T23:10:13.677Z,14.30
2018-04-07T23:12:41.168Z,14.20
2018-04-07T23:15:08.696Z,14.20
2018-04-07T23:17:36.277Z,14.20
2018-04-07T23:20:03.788Z,14.20
2018-04-07T23:22:32.097Z,14.20
2018-04-07T23:24:59.656Z,14.20
2018-04-07T23:27:27.098Z,14.20
2018-04-07T23:29:54.659Z,14.10
2018-04-07T23:32:22.285Z,14.10
2018-04-07T23:34:49.805Z,14.10
2018-04-07T23:37:17.336Z,14.10
2018-04-07T23:39:45.645Z,14.00
2018-04-07T23:42:13.156Z,14.00
2018-04-07T23:44:40.676Z,14.00
2018-04-07T23:47:08.952Z,14.00
2018-04-07T23:49:37.235Z,14.00
2018-04-07T23:52:04.789Z,13.90
2018-04-07T23:54:32.283Z,13.90
2018-04-07T23:57:00.657Z,13.90
2018-04-07T23:59:28.245Z,13.90
